Time;durP1;ratioP1;P1;durP2;ratioP2;P2;SDS_P1;SDS_P2;PMS_P1;PMS_P2;Temp;Humidity;BMP_temperature;BMP_pressure;BME280_temperature;BME280_humidity;BME280_pressure;Samples;Min_cycle;Max_cycle;Signal;HPM_P1;HPM_P2
2024/04/13 00:01:22;;;;;;;1.85;1.23;;;;;;;-145.63;100.00;61273.97;4986088;28;20046;-70
2024/04/13 00:03:51;;;;;;;2.95;1.15;;;;;;;-145.63;100.00;61273.97;4981411;28;20026;-68
2024/04/13 00:06:17;;;;;;;3.03;1.00;;;;;;;-145.63;100.00;61273.97;4981357;28;20038;-69
2024/04/13 00:08:43;;;;;;;2.95;1.27;;;;;;;-145.63;100.00;61273.97;4982412;28;20131;-67
2024/04/13 00:11:09;;;;;;;0.80;0.80;;;;;;;-145.63;100.00;61273.97;4984533;28;20181;-68
2024/04/13 00:13:38;;;;;;;2.30;0.85;;;;;;;-145.63;100.00;61273.97;4977626;28;20033;-68
2024/04/13 00:16:04;;;;;;;1.38;1.00;;;;;;;-145.63;100.00;61273.97;4978711;28;20038;-68
2024/04/13 00:18:33;;;;;;;1.23;1.10;;;;;;;-145.63;100.00;61273.97;4977223;28;20035;-67
2024/04/13 00:21:00;;;;;;;1.00;0.90;;;;;;;-145.63;100.00;61273.97;4982252;28;20023;-68
2024/04/13 00:23:26;;;;;;;4.20;0.95;;;;;;;-145.63;100.00;61273.97;4981650;28;20030;-69
2024/04/13 00:25:53;;;;;;;1.15;0.70;;;;;;;-145.63;100.00;61273.97;4989417;28;20026;-69
2024/04/13 00:28:19;;;;;;;0.80;0.80;;;;;;;-145.63;100.00;61273.97;4985636;28;20391;-67
2024/04/13 00:30:48;;;;;;;1.45;0.80;;;;;;;-145.63;100.00;61273.97;4979280;28;20452;-68
2024/04/13 00:33:13;;;;;;;0.70;0.65;;;;;;;-145.63;100.00;61273.97;4983466;28;20029;-69
2024/04/13 00:35:40;;;;;;;0.75;0.63;;;;;;;-145.63;100.00;61273.97;4982364;28;20101;-71
2024/04/13 00:38:06;;;;;;;0.80;0.75;;;;;;;-145.63;100.00;61273.97;4981772;28;20133;-69
2024/04/13 00:40:32;;;;;;;1.90;0.93;;;;;;;-145.63;100.00;61273.97;4980106;28;20022;-68
2024/04/13 00:43:08;;;;;;;1.00;0.90;;;;;;;-145.63;100.00;61273.97;4977285;28;20046;-68
2024/04/13 00:45:42;;;;;;;2.67;1.00;;;;;;;-145.63;100.00;61273.97;4978770;28;20041;-70
2024/04/13 00:48:11;;;;;;;1.45;0.70;;;;;;;-145.63;100.00;61273.97;4983493;28;20851;-68
2024/04/13 00:50:40;;;;;;;3.15;1.10;;;;;;;-145.63;100.00;61273.97;4985391;28;20035;-68
2024/04/13 00:53:09;;;;;;;1.38;1.10;;;;;;;-145.63;100.00;61273.97;4981009;28;20114;-68
2024/04/13 00:55:35;;;;;;;2.15;1.00;;;;;;;-145.63;100.00;61273.97;4982430;28;20380;-69
2024/04/13 00:58:01;;;;;;;1.42;0.95;;;;;;;-145.63;100.00;61273.97;4977096;28;20055;-69
2024/04/13 01:00:27;;;;;;;2.50;0.90;;;;;;;-145.63;100.00;61273.97;4985458;28;20041;-69
2024/04/13 01:02:53;;;;;;;2.45;0.90;;;;;;;-145.63;100.00;61273.97;4979735;28;20049;-69
2024/04/13 01:05:20;;;;;;;2.00;1.17;;;;;;;-145.63;100.00;61273.97;4979293;28;20049;-68
2024/04/13 01:07:46;;;;;;;1.08;0.80;;;;;;;-145.63;100.00;61273.97;4996616;28;20030;-68
2024/04/13 01:10:16;;;;;;;1.90;0.98;;;;;;;-145.63;100.00;61273.97;4977445;28;20089;-68
2024/04/13 01:12:43;;;;;;;0.68;0.68;;;;;;;-145.63;100.00;61273.97;4981452;28;20070;-68
2024/04/13 01:15:09;;;;;;;2.28;1.00;;;;;;;-145.63;100.00;61273.97;4983303;28;20026;-67
2024/04/13 01:17:37;;;;;;;1.23;0.90;;;;;;;-145.63;100.00;61273.97;4980663;28;20038;-68
2024/04/13 01:20:04;;;;;;;1.40;0.98;;;;;;;-145.63;100.00;61273.97;4980873;28;20044;-68
2024/04/13 01:22:32;;;;;;;1.85;1.00;;;;;;;-145.63;100.00;61273.97;4985590;28;20050;-69
2024/04/13 01:24:58;;;;;;;2.47;1.20;;;;;;;-145.63;100.00;61273.97;4979090;28;20121;-67
2024/04/13 01:27:24;;;;;;;3.25;1.40;;;;;;;-145.63;100.00;61273.97;4983036;28;20118;-66
2024/04/13 01:29:50;;;;;;;1.77;1.20;;;;;;;-145.63;100.00;61273.97;4976308;28;20033;-69
2024/04/13 01:32:16;;;;;;;1.48;0.90;;;;;;;-145.63;100.00;61273.97;4975468;28;20450;-68
2024/04/13 01:34:42;;;;;;;3.28;1.20;;;;;;;-145.63;100.00;61273.97;4977668;28;20567;-68
2024/04/13 01:37:08;;;;;;;2.95;1.05;;;;;;;-145.63;100.00;61273.97;4983607;28;20023;-69
2024/04/13 01:39:34;;;;;;;2.22;1.05;;;;;;;-145.63;100.00;61273.97;4984493;28;20495;-69
2024/04/13 01:41:59;;;;;;;1.73;1.10;;;;;;;-145.63;100.00;61273.97;4978627;28;20151;-69
2024/04/13 01:44:25;;;;;;;1.15;1.00;;;;;;;-145.63;100.00;61273.97;4980663;28;20534;-69
2024/04/13 01:46:51;;;;;;;1.85;0.90;;;;;;;-145.63;100.00;61273.97;4984438;28;20031;-69
2024/04/13 01:49:17;;;;;;;2.80;1.02;;;;;;;-145.63;100.00;61273.97;4978296;28;20034;-70
2024/04/13 01:51:43;;;;;;;1.45;0.98;;;;;;;-145.63;100.00;61273.97;4979479;28;20034;-69
2024/04/13 01:54:09;;;;;;;2.03;1.20;;;;;;;-145.63;100.00;61273.97;4977167;28;20042;-70
2024/04/13 01:56:35;;;;;;;2.00;1.20;;;;;;;-145.63;100.00;61273.97;4979192;28;20027;-69
2024/04/13 01:59:00;;;;;;;2.53;1.40;;;;;;;-145.63;100.00;61273.97;4980020;28;20046;-69
2024/04/13 02:01:27;;;;;;;2.40;1.10;;;;;;;-145.63;100.00;61273.97;4975981;28;20049;-69
2024/04/13 02:03:53;;;;;;;3.20;1.38;;;;;;;-145.63;100.00;61273.97;4982292;28;20106;-68
2024/04/13 02:06:18;;;;;;;1.85;1.20;;;;;;;-145.63;100.00;61273.97;4976278;28;20169;-70
2024/04/13 02:08:44;;;;;;;3.65;2.05;;;;;;;-145.63;100.00;61273.97;4974842;28;20137;-69
2024/04/13 02:11:10;;;;;;;2.83;1.27;;;;;;;-145.63;100.00;61273.97;4971872;28;20040;-70
2024/04/13 02:13:36;;;;;;;2.05;1.00;;;;;;;-145.63;100.00;61273.97;4980868;28;20034;-68
2024/04/13 02:16:03;;;;;;;4.65;1.50;;;;;;;-145.63;100.00;61273.97;4975712;28;20042;-69
2024/04/13 02:18:29;;;;;;;2.22;1.25;;;;;;;-145.63;100.00;61273.97;4975973;28;20133;-69
2024/04/13 02:20:58;;;;;;;5.90;1.33;;;;;;;-145.63;100.00;61273.97;4977396;28;20452;-68
2024/04/13 02:23:23;;;;;;;2.28;1.20;;;;;;;-145.63;100.00;61273.97;4971905;28;20053;-68
2024/04/13 02:25:52;;;;;;;1.60;1.13;;;;;;;-145.63;100.00;61273.97;4985361;28;20027;-68
2024/04/13 02:28:18;;;;;;;1.55;1.00;;;;;;;-145.63;100.00;61273.97;4981272;28;20046;-69
2024/04/13 02:30:44;;;;;;;2.50;1.30;;;;;;;-145.63;100.00;61273.97;4975537;28;20039;-67
2024/04/13 02:33:10;;;;;;;3.30;1.58;;;;;;;-145.63;100.00;61273.97;4975537;28;20023;-67
2024/04/13 02:35:38;;;;;;;3.63;1.65;;;;;;;-145.63;100.00;61273.97;4972726;28;20357;-67
2024/04/13 02:38:04;;;;;;;3.67;1.40;;;;;;;-145.63;100.00;61273.97;4973016;28;20062;-68
2024/04/13 02:40:30;;;;;;;3.92;1.30;;;;;;;-145.63;100.00;61273.97;4982207;28;20026;-69
2024/04/13 02:43:01;;;;;;;2.40;1.40;;;;;;;-145.63;100.00;61273.97;4993695;28;20108;-70
2024/04/13 02:45:26;;;;;;;2.47;1.35;;;;;;;-145.63;100.00;61273.97;4984542;28;20070;-68
2024/04/13 02:47:52;;;;;;;2.70;1.58;;;;;;;-145.63;100.00;61273.97;4990273;28;20413;-69
2024/04/13 02:50:18;;;;;;;4.47;1.23;;;;;;;-145.63;100.00;61273.97;4978578;28;20106;-69
2024/04/13 02:52:44;;;;;;;6.72;1.48;;;;;;;-145.63;100.00;61273.97;4978403;28;20031;-69
2024/04/13 02:55:10;;;;;;;3.38;1.30;;;;;;;-145.63;100.00;61273.97;4983746;28;20033;-69
2024/04/13 02:57:36;;;;;;;4.03;1.30;;;;;;;-145.63;100.00;61273.97;4982182;28;20035;-69
2024/04/13 03:00:03;;;;;;;3.53;1.30;;;;;;;-145.63;100.00;61273.97;4987864;28;20545;-68
2024/04/13 03:02:31;;;;;;;2.38;1.20;;;;;;;-145.63;100.00;61273.97;4978623;28;20062;-68
2024/04/13 03:04:59;;;;;;;2.33;1.10;;;;;;;-145.63;100.00;61273.97;4978963;28;20034;-69
2024/04/13 03:07:25;;;;;;;1.13;1.00;;;;;;;-145.63;100.00;61273.97;4980302;28;20030;-69
2024/04/13 03:09:52;;;;;;;2.80;1.30;;;;;;;-145.63;100.00;61273.97;4982335;28;20030;-69
2024/04/13 03:12:17;;;;;;;1.48;1.15;;;;;;;-145.63;100.00;61273.97;4978281;28;20065;-68
2024/04/13 03:14:44;;;;;;;3.00;1.30;;;;;;;-145.63;100.00;61273.97;4981375;28;20034;-69
2024/04/13 03:17:09;;;;;;;2.55;1.23;;;;;;;-145.63;100.00;61273.97;4988623;28;20031;-69
2024/04/13 03:19:39;;;;;;;3.45;1.30;;;;;;;-145.63;100.00;61273.97;4988214;28;20039;-69
2024/04/13 03:22:05;;;;;;;3.25;1.15;;;;;;;-145.63;100.00;61273.97;4978626;28;20054;-69
2024/04/13 03:24:33;;;;;;;3.03;1.25;;;;;;;-145.63;100.00;61273.97;4980002;28;20026;-69
2024/04/13 03:27:03;;;;;;;2.38;1.33;;;;;;;-145.63;100.00;61273.97;4982310;28;20469;-69
2024/04/13 03:29:29;;;;;;;2.50;1.10;;;;;;;-145.63;100.00;61273.97;4974199;28;20053;-68
2024/04/13 03:31:55;;;;;;;2.28;1.20;;;;;;;-145.63;100.00;61273.97;4984597;28;20038;-69
2024/04/13 03:34:21;;;;;;;1.48;1.10;;;;;;;-145.63;100.00;61273.97;4978554;28;20026;-68
2024/04/13 03:36:47;;;;;;;3.60;1.45;;;;;;;-145.63;100.00;61273.97;4981102;28;20060;-68
2024/04/13 03:39:13;;;;;;;2.67;1.30;;;;;;;-145.63;100.00;61273.97;4979169;28;20026;-68
2024/04/13 03:41:38;;;;;;;1.77;1.20;;;;;;;-145.63;100.00;61273.97;4976915;28;20443;-68
2024/04/13 03:44:05;;;;;;;3.38;1.50;;;;;;;-145.63;100.00;61273.97;4977336;28;20059;-68
2024/04/13 03:46:31;;;;;;;2.05;1.40;;;;;;;-145.63;100.00;61273.97;4980513;28;20042;-69
2024/04/13 03:48:58;;;;;;;2.33;1.65;;;;;;;-145.63;100.00;61273.97;4981792;28;20077;-68
2024/04/13 03:51:23;;;;;;;2.95;1.50;;;;;;;-145.63;100.00;61273.97;4978772;28;20027;-68
2024/04/13 03:53:49;;;;;;;2.55;1.65;;;;;;;-145.63;100.00;61273.97;4977623;28;20336;-70
2024/04/13 03:56:16;;;;;;;3.72;1.52;;;;;;;-145.63;100.00;61273.97;4975381;28;20027;-68
2024/04/13 03:58:42;;;;;;;5.57;1.88;;;;;;;-145.63;100.00;61273.97;4978292;28;20472;-66
2024/04/13 04:01:07;;;;;;;3.95;1.65;;;;;;;-145.63;100.00;61273.97;4983958;28;20072;-69
2024/04/13 04:03:33;;;;;;;3.38;1.60;;;;;;;-145.63;100.00;61273.97;4978237;28;20078;-68
2024/04/13 04:05:58;;;;;;;7.03;1.70;;;;;;;-145.63;100.00;61273.97;4983332;28;20058;-67
2024/04/13 04:08:24;;;;;;;3.88;1.55;;;;;;;-145.63;100.00;61273.97;4978786;28;20030;-67
2024/04/13 04:10:50;;;;;;;3.08;1.50;;;;;;;-145.63;100.00;61273.97;4981995;28;20038;-68
2024/04/13 04:13:15;;;;;;;3.10;1.58;;;;;;;-145.63;100.00;61273.97;4981098;28;20594;-68
2024/04/13 04:15:41;;;;;;;4.03;1.50;;;;;;;-145.63;100.00;61273.97;4981669;28;20034;-68
2024/04/13 04:18:07;;;;;;;2.90;1.42;;;;;;;-145.63;100.00;61273.97;4984532;28;20026;-67
2024/04/13 04:20:34;;;;;;;2.55;1.40;;;;;;;-145.63;100.00;61273.97;4977132;28;20081;-67
2024/04/13 04:23:00;;;;;;;3.15;1.55;;;;;;;-145.63;100.00;61273.97;4983888;28;20033;-68
2024/04/13 04:25:27;;;;;;;5.82;1.85;;;;;;;-145.63;100.00;61273.97;4979123;28;20035;-68
2024/04/13 04:27:52;;;;;;;3.28;1.45;;;;;;;-145.63;100.00;61273.97;4984157;28;20114;-68
2024/04/13 04:30:18;;;;;;;3.42;1.60;;;;;;;-145.63;100.00;61273.97;4978828;28;20601;-69
2024/04/13 04:32:44;;;;;;;4.57;1.77;;;;;;;-145.63;100.00;61273.97;4981467;28;20053;-70
2024/04/13 04:35:10;;;;;;;2.17;1.40;;;;;;;-145.63;100.00;61273.97;4983511;28;20026;-70
2024/04/13 04:37:39;;;;;;;4.10;1.55;;;;;;;-145.63;100.00;61273.97;4980477;28;20034;-70
2024/04/13 04:40:08;;;;;;;4.72;1.63;;;;;;;-145.63;100.00;61273.97;4981503;28;20045;-70
2024/04/13 04:42:34;;;;;;;4.45;1.48;;;;;;;-145.63;100.00;61273.97;4979990;28;20057;-69
2024/04/13 04:45:02;;;;;;;3.08;1.63;;;;;;;-145.63;100.00;61273.97;4984071;28;20038;-70
2024/04/13 04:47:29;;;;;;;3.00;1.55;;;;;;;-145.63;100.00;61273.97;4988370;28;20483;-68
2024/04/13 04:49:55;;;;;;;4.43;1.33;;;;;;;-145.63;100.00;61273.97;4979716;28;20050;-69
2024/04/13 04:52:20;;;;;;;5.30;1.38;;;;;;;-145.63;100.00;61273.97;4983068;28;20033;-69
2024/04/13 04:54:46;;;;;;;3.22;1.30;;;;;;;-145.63;100.00;61273.97;4982224;28;20049;-68
2024/04/13 04:57:12;;;;;;;4.68;1.50;;;;;;;-145.63;100.00;61273.97;4980089;28;20022;-69
2024/04/13 04:59:38;;;;;;;3.35;1.60;;;;;;;-145.63;100.00;61273.97;4980006;28;20033;-68
2024/04/13 05:02:04;;;;;;;2.63;1.20;;;;;;;-145.63;100.00;61273.97;4979030;28;20139;-68
2024/04/13 05:04:30;;;;;;;3.25;1.40;;;;;;;-145.63;100.00;61273.97;4987307;28;20030;-69
2024/04/13 05:06:57;;;;;;;1.90;1.10;;;;;;;-145.63;100.00;61273.97;4977140;28;20023;-70
2024/04/13 05:09:23;;;;;;;4.50;1.40;;;;;;;-145.63;100.00;61273.97;4981246;28;20498;-69
2024/04/13 05:11:48;;;;;;;5.55;1.30;;;;;;;-145.63;100.00;61273.97;4982399;28;20118;-68
2024/04/13 05:14:16;;;;;;;8.63;5.00;;;;;;;-145.63;100.00;61273.97;4977562;28;20038;-71
2024/04/13 05:16:42;;;;;;;1.85;1.25;;;;;;;-145.63;100.00;61273.97;4981745;28;20035;-70
2024/04/13 05:19:08;;;;;;;6.25;1.58;;;;;;;-145.63;100.00;61273.97;4981888;28;20034;-68
2024/04/13 05:21:33;;;;;;;3.85;1.40;;;;;;;-145.63;100.00;61273.97;4976654;28;20037;-71
2024/04/13 05:23:59;;;;;;;5.22;1.50;;;;;;;-145.63;100.00;61273.97;4975233;28;20039;-69
2024/04/13 05:26:27;;;;;;;3.95;1.58;;;;;;;-145.63;100.00;61273.97;4980726;28;20041;-70
2024/04/13 05:28:53;;;;;;;4.18;1.60;;;;;;;-145.63;100.00;61273.97;4977537;28;20512;-67
2024/04/13 05:31:18;;;;;;;1.65;1.23;;;;;;;-145.63;100.00;61273.97;4990061;28;20118;-69
2024/04/13 05:33:44;;;;;;;4.32;1.48;;;;;;;-145.63;100.00;61273.97;4980420;28;20039;-70
2024/04/13 05:36:11;;;;;;;3.30;1.30;;;;;;;-145.63;100.00;61273.97;4975070;28;20062;-70
2024/04/13 05:38:37;;;;;;;4.22;1.70;;;;;;;-145.63;100.00;61273.97;4979582;28;20030;-69
2024/04/13 05:41:04;;;;;;;4.13;1.50;;;;;;;-145.63;100.00;61273.97;4974697;28;20047;-66
2024/04/13 05:43:30;;;;;;;3.40;1.40;;;;;;;-145.63;100.00;61273.97;4985556;28;20053;-68
2024/04/13 05:45:56;;;;;;;2.95;1.42;;;;;;;-145.63;100.00;61273.97;4979104;28;20039;-68
2024/04/13 05:48:21;;;;;;;2.35;1.40;;;;;;;-145.63;100.00;61273.97;4983530;28;20038;-68
2024/04/13 05:50:54;;;;;;;3.80;1.70;;;;;;;-145.63;100.00;61273.97;4979757;28;20034;-68
2024/04/13 05:53:20;;;;;;;4.32;1.50;;;;;;;-145.63;100.00;61273.97;4976383;28;20098;-69
2024/04/13 05:55:46;;;;;;;12.35;1.95;;;;;;;-145.63;100.00;61273.97;4980466;28;20106;-67
2024/04/13 05:58:12;;;;;;;3.15;1.58;;;;;;;-145.63;100.00;61273.97;4993345;28;20046;-68
2024/04/13 06:00:38;;;;;;;2.63;1.70;;;;;;;-145.63;100.00;61273.97;4982062;28;20046;-68
2024/04/13 06:03:03;;;;;;;4.85;2.20;;;;;;;-145.63;100.00;61273.97;4972532;28;20050;-67
2024/04/13 06:05:29;;;;;;;2.47;1.40;;;;;;;-145.63;100.00;61273.97;4972049;28;20030;-66
2024/04/13 06:07:55;;;;;;;4.85;1.70;;;;;;;-145.63;100.00;61273.97;4985945;28;20027;-66
2024/04/13 06:10:20;;;;;;;5.43;1.88;;;;;;;-145.63;100.00;61273.97;4971134;28;20121;-67
2024/04/13 06:12:48;;;;;;;2.83;1.50;;;;;;;-145.63;100.00;61273.97;4971950;28;20159;-66
2024/04/13 06:15:13;;;;;;;3.40;1.40;;;;;;;-145.63;100.00;61273.97;4989181;28;20038;-66
2024/04/13 06:17:39;;;;;;;4.57;1.50;;;;;;;-145.63;100.00;61273.97;4980366;28;20211;-67
2024/04/13 06:20:08;;;;;;;4.85;1.52;;;;;;;-145.63;100.00;61273.97;4980939;28;20035;-65
2024/04/13 06:22:37;;;;;;;5.97;1.88;;;;;;;-145.63;100.00;61273.97;4992811;28;20026;-67
2024/04/13 06:25:09;;;;;;;2.92;1.50;;;;;;;-145.63;100.00;61273.97;4976020;28;20027;-67
2024/04/13 06:27:35;;;;;;;5.35;2.20;;;;;;;-145.63;100.00;61273.97;4994068;28;20038;-66
2024/04/13 06:30:01;;;;;;;5.43;1.70;;;;;;;-145.63;100.00;61273.97;4981637;28;20392;-65
2024/04/13 06:32:27;;;;;;;3.33;1.48;;;;;;;-145.63;100.00;61273.97;4983306;28;20030;-65
2024/04/13 06:34:53;;;;;;;3.90;1.67;;;;;;;-145.63;100.00;61273.97;4980366;28;20528;-68
2024/04/13 06:37:18;;;;;;;4.38;1.88;;;;;;;-145.63;100.00;61273.97;4975049;28;20054;-66
2024/04/13 06:39:44;;;;;;;2.40;1.35;;;;;;;-145.63;100.00;61273.97;4975276;28;20114;-67
2024/04/13 06:42:10;;;;;;;2.40;1.52;;;;;;;-145.63;100.00;61273.97;4990516;28;20034;-65
2024/04/13 06:44:36;;;;;;;2.33;1.73;;;;;;;-145.63;100.00;61273.97;4991649;28;20034;-65
2024/04/13 06:47:02;;;;;;;6.70;1.77;;;;;;;-145.63;100.00;61273.97;4994911;28;20038;-68
2024/04/13 06:49:28;;;;;;;2.83;1.50;;;;;;;-145.63;100.00;61273.97;4994042;28;20042;-67
2024/04/13 06:51:53;;;;;;;6.38;1.52;;;;;;;-145.63;100.00;61273.97;4974876;28;20042;-66
2024/04/13 06:54:19;;;;;;;3.80;1.60;;;;;;;-145.63;100.00;61273.97;4990790;28;20034;-66
2024/04/13 06:56:45;;;;;;;3.58;1.48;;;;;;;-145.63;100.00;61273.97;4987308;28;20133;-66
2024/04/13 06:59:11;;;;;;;3.35;1.63;;;;;;;-145.63;100.00;61273.97;4987486;28;20050;-65
2024/04/13 07:01:36;;;;;;;4.13;1.33;;;;;;;-145.63;100.00;61273.97;4975207;28;20038;-65
2024/04/13 07:04:02;;;;;;;3.15;1.88;;;;;;;-145.63;100.00;61273.97;4975410;28;20745;-64
2024/04/13 07:06:28;;;;;;;4.47;2.03;;;;;;;-145.63;100.00;61273.97;4974431;28;20365;-64
2024/04/13 07:08:54;;;;;;;2.45;1.95;;;;;;;-145.63;100.00;61273.97;4987890;28;20113;-65
2024/04/13 07:11:20;;;;;;;2.85;1.83;;;;;;;-145.63;100.00;61273.97;4986704;28;20118;-64
2024/04/13 07:13:49;;;;;;;2.97;2.05;;;;;;;-145.63;100.00;61273.97;4984679;28;20825;-65
2024/04/13 07:16:15;;;;;;;3.08;1.75;;;;;;;-145.63;100.00;61273.97;4977110;28;20056;-68
2024/04/13 07:18:40;;;;;;;10.20;2.30;;;;;;;-145.63;100.00;61273.97;4992809;28;20046;-67
2024/04/13 07:21:07;;;;;;;4.85;1.50;;;;;;;-145.63;100.00;61273.97;4986388;28;20042;-65
2024/04/13 07:23:33;;;;;;;4.25;2.20;;;;;;;-145.63;100.00;61273.97;4984743;28;20387;-69
2024/04/13 07:26:00;;;;;;;3.92;1.85;;;;;;;-145.63;100.00;61273.97;4989073;28;20030;-65
2024/04/13 07:28:26;;;;;;;2.55;1.45;;;;;;;-145.63;100.00;61273.97;4974832;28;20652;-67
2024/04/13 07:30:52;;;;;;;3.15;2.00;;;;;;;-145.63;100.00;61273.97;4994787;28;20173;-67
2024/04/13 07:33:18;;;;;;;7.93;3.30;;;;;;;-145.63;100.00;61273.97;4978386;28;20109;-65
2024/04/13 07:35:43;;;;;;;11.20;6.13;;;;;;;-145.63;100.00;61273.97;4975159;28;20073;-66
2024/04/13 07:38:10;;;;;;;5.40;2.60;;;;;;;-145.63;100.00;61273.97;4974658;28;20031;-66
2024/04/13 07:40:35;;;;;;;5.55;2.17;;;;;;;-145.63;100.00;61273.97;4977866;28;20481;-65
2024/04/13 07:43:01;;;;;;;3.63;2.20;;;;;;;-145.63;100.00;61273.97;5001314;28;20034;-65
2024/04/13 07:45:27;;;;;;;6.25;1.85;;;;;;;-145.63;100.00;61273.97;4976001;28;20037;-66
2024/04/13 07:47:52;;;;;;;4.10;1.70;;;;;;;-145.63;100.00;61273.97;4987226;28;20360;-67
2024/04/13 07:50:18;;;;;;;4.63;2.10;;;;;;;-145.63;100.00;61273.97;4986128;28;20069;-66
2024/04/13 07:52:44;;;;;;;4.57;2.15;;;;;;;-145.63;100.00;61273.97;4974465;28;20070;-67
2024/04/13 07:55:10;;;;;;;4.60;2.05;;;;;;;-145.63;100.00;61273.97;4973981;28;20085;-66
2024/04/13 07:57:35;;;;;;;3.60;2.03;;;;;;;-145.63;100.00;61273.97;4991541;28;20054;-66
2024/04/13 08:00:01;;;;;;;3.50;1.67;;;;;;;-145.63;100.00;61273.97;4980649;28;20046;-67
2024/04/13 08:02:28;;;;;;;12.60;6.93;;;;;;;-145.63;100.00;61273.97;4990882;28;20034;-66
2024/04/13 08:04:54;;;;;;;4.55;1.65;;;;;;;-145.63;100.00;61273.97;4993671;28;20041;-66
2024/04/13 08:07:19;;;;;;;4.00;2.08;;;;;;;-145.63;100.00;61273.97;4993341;28;20672;-68
2024/04/13 08:09:45;;;;;;;4.88;2.45;;;;;;;-145.63;100.00;61273.97;4974274;28;20047;-67
2024/04/13 08:12:11;;;;;;;3.28;1.63;;;;;;;-145.63;100.00;61273.97;4986679;28;20146;-68
2024/04/13 08:14:37;;;;;;;3.63;1.80;;;;;;;-145.63;100.00;61273.97;4984405;28;20371;-68
2024/04/13 08:17:03;;;;;;;3.97;2.10;;;;;;;-145.63;100.00;61273.97;4979379;28;20109;-67
2024/04/13 08:19:29;;;;;;;7.15;2.25;;;;;;;-145.63;100.00;61273.97;4997829;28;20423;-68
2024/04/13 08:21:54;;;;;;;1.70;1.20;;;;;;;-145.63;100.00;61273.97;4975756;28;20038;-68
2024/04/13 08:24:20;;;;;;;3.00;1.90;;;;;;;-145.63;100.00;61273.97;4973552;28;20704;-68
2024/04/13 08:26:46;;;;;;;4.20;1.85;;;;;;;-145.63;100.00;61273.97;4973195;28;20085;-68
2024/04/13 08:29:12;;;;;;;4.20;1.83;;;;;;;-145.63;100.00;61273.97;4979842;28;20527;-67
2024/04/13 08:31:38;;;;;;;13.68;2.80;;;;;;;-145.63;100.00;61273.97;4991503;28;20034;-67
2024/04/13 08:34:05;;;;;;;4.80;1.65;;;;;;;-145.63;100.00;61273.97;4973270;28;20118;-70
2024/04/13 08:36:31;;;;;;;8.60;2.35;;;;;;;-145.63;100.00;61273.97;4990884;28;20058;-69
2024/04/13 08:38:57;;;;;;;4.10;1.85;;;;;;;-145.63;100.00;61273.97;4980514;28;20037;-68
2024/04/13 08:41:35;;;;;;;4.53;1.92;;;;;;;-145.63;100.00;61273.97;4980749;28;20046;-66
2024/04/13 08:44:00;;;;;;;7.22;2.55;;;;;;;-145.63;100.00;61273.97;4988697;28;20038;-67
2024/04/13 08:46:26;;;;;;;4.53;2.00;;;;;;;-145.63;100.00;61273.97;4974848;28;20039;-68
2024/04/13 08:48:53;;;;;;;2.88;1.80;;;;;;;-145.63;100.00;61273.97;4992606;28;20057;-67
2024/04/13 08:51:20;;;;;;;4.25;1.90;;;;;;;-145.63;100.00;61273.97;4976390;28;20428;-67
2024/04/13 08:53:49;;;;;;;4.57;2.10;;;;;;;-145.63;100.00;61273.97;4983740;28;20058;-69
2024/04/13 08:56:17;;;;;;;5.22;2.15;;;;;;;-145.63;100.00;61273.97;4985935;28;20039;-68
2024/04/13 08:58:46;;;;;;;5.65;2.13;;;;;;;-145.63;100.00;61273.97;4973753;28;20443;-67
2024/04/13 09:01:16;;;;;;;7.50;2.20;;;;;;;-145.63;100.00;61273.97;4979761;28;20037;-71
2024/04/13 09:03:46;;;;;;;7.97;2.28;;;;;;;-145.63;100.00;61273.97;4992654;28;20111;-69
2024/04/13 09:06:13;;;;;;;4.67;2.17;;;;;;;-145.63;100.00;61273.97;4978027;28;20030;-68
2024/04/13 09:08:40;;;;;;;8.73;2.10;;;;;;;-145.63;100.00;61273.97;4982348;28;20502;-65
2024/04/13 09:11:08;;;;;;;6.72;2.30;;;;;;;-145.63;100.00;61273.97;4987085;28;20038;-67
2024/04/13 09:13:37;;;;;;;7.10;2.17;;;;;;;-145.63;100.00;61273.97;4973893;28;20097;-64
2024/04/13 09:16:03;;;;;;;4.82;2.10;;;;;;;-145.63;100.00;61273.97;4992244;28;20034;-66
2024/04/13 09:18:29;;;;;;;6.45;2.13;;;;;;;-145.63;100.00;61273.97;4976200;28;20046;-67
2024/04/13 09:20:56;;;;;;;7.07;2.15;;;;;;;-145.63;100.00;61273.97;4983889;28;20027;-67
2024/04/13 09:23:27;;;;;;;6.50;2.03;;;;;;;-145.63;100.00;61273.97;4985340;28;20102;-67
2024/04/13 09:26:06;;;;;;;9.23;2.70;;;;;;;-145.63;100.00;61273.97;4975814;28;20085;-69
2024/04/13 09:28:44;;;;;;;5.65;1.95;;;;;;;-145.63;100.00;61273.97;4991920;28;20503;-66
2024/04/13 09:31:11;;;;;;;10.88;2.17;;;;;;;-145.63;100.00;61273.97;4972737;28;20126;-66
2024/04/13 09:33:37;;;;;;;4.93;2.08;;;;;;;-145.63;100.00;61273.97;4989313;28;20531;-66
2024/04/13 09:36:03;;;;;;;8.48;2.20;;;;;;;-145.63;100.00;61273.97;4979372;28;20606;-65
2024/04/13 09:38:29;;;;;;;7.78;1.90;;;;;;;-145.63;100.00;61273.97;4980659;28;20084;-66
2024/04/13 09:40:58;;;;;;;4.43;2.20;;;;;;;-145.63;100.00;61273.97;4994910;28;20199;-66
2024/04/13 09:43:24;;;;;;;7.05;2.17;;;;;;;-145.63;100.00;61273.97;5011784;28;20037;-66
2024/04/13 09:46:02;;;;;;;5.75;2.03;;;;;;;-145.63;100.00;61273.97;4992735;28;20049;-66
2024/04/13 09:48:29;;;;;;;9.48;2.35;;;;;;;-145.63;100.00;61273.97;4991594;28;20054;-66
2024/04/13 09:50:55;;;;;;;7.03;2.70;;;;;;;-145.63;100.00;61273.97;4984968;28;20050;-66
2024/04/13 09:53:20;;;;;;;10.55;2.60;;;;;;;-145.63;100.00;61273.97;4983055;28;20041;-66
2024/04/13 09:55:47;;;;;;;4.95;1.90;;;;;;;-145.63;100.00;61273.97;4993499;28;20117;-68
2024/04/13 09:58:16;;;;;;;6.97;3.88;;;;;;;-145.63;100.00;61273.97;4976603;28;20511;-68
2024/04/13 10:00:48;;;;;;;3.42;1.88;;;;;;;-145.63;100.00;61273.97;4993786;28;20046;-64
2024/04/13 10:03:15;;;;;;;5.55;1.92;;;;;;;-145.63;100.00;61273.97;4994853;28;20125;-66
2024/04/13 10:05:43;;;;;;;4.13;1.80;;;;;;;-145.63;100.00;61273.97;4986384;28;20035;-65
2024/04/13 10:08:10;;;;;;;9.23;2.20;;;;;;;-145.63;100.00;61273.97;4981046;28;20038;-65
2024/04/13 10:10:42;;;;;;;12.02;3.47;;;;;;;-145.63;100.00;61273.97;4995054;28;20550;-64
2024/04/13 10:13:10;;;;;;;5.72;1.85;;;;;;;-145.63;100.00;61273.97;4993488;28;20101;-65
2024/04/13 10:15:36;;;;;;;4.10;1.75;;;;;;;-145.63;100.00;61273.97;4995289;28;20502;-67
2024/04/13 10:18:04;;;;;;;2.92;1.90;;;;;;;-145.63;100.00;61273.97;4983026;28;20493;-66
2024/04/13 10:20:30;;;;;;;4.05;1.83;;;;;;;-145.63;100.00;61273.97;4975926;28;20157;-65
2024/04/13 10:23:01;;;;;;;6.50;2.03;;;;;;;-145.63;100.00;61273.97;4978893;28;20053;-66
2024/04/13 10:25:28;;;;;;;6.43;2.00;;;;;;;-145.63;100.00;61273.97;4994955;28;20105;-66
2024/04/13 10:28:08;;;;;;;4.15;2.00;;;;;;;-145.63;100.00;61273.97;4995441;28;20415;-65
2024/04/13 10:30:50;;;;;;;6.22;1.88;;;;;;;-145.63;100.00;61273.97;4979554;28;20026;-66
2024/04/13 10:33:29;;;;;;;7.10;2.10;;;;;;;-145.63;100.00;61273.97;4975414;28;20023;-65
2024/04/13 10:36:03;;;;;;;3.80;2.10;;;;;;;-145.63;100.00;61273.97;4986641;28;20042;-68
2024/04/13 10:38:31;;;;;;;7.72;2.67;;;;;;;-145.63;100.00;61273.97;4988039;28;20037;-64
2024/04/13 10:40:58;;;;;;;5.82;2.10;;;;;;;-145.63;100.00;61273.97;4981286;28;20026;-66
2024/04/13 10:43:24;;;;;;;5.22;2.05;;;;;;;-145.63;100.00;61273.97;5014615;28;20812;-65
2024/04/13 10:46:01;;;;;;;7.80;2.00;;;;;;;-145.63;100.00;61273.97;4996431;28;20452;-66
2024/04/13 10:48:32;;;;;;;4.38;2.05;;;;;;;-145.63;100.00;61273.97;4994595;28;20030;-65
2024/04/13 10:50:59;;;;;;;3.55;1.60;;;;;;;-145.63;100.00;61273.97;4983883;28;20170;-66
2024/04/13 10:53:28;;;;;;;2.67;1.95;;;;;;;-145.63;100.00;61273.97;4981944;28;20066;-65
2024/04/13 10:55:56;;;;;;;5.57;2.05;;;;;;;-145.63;100.00;61273.97;4992371;28;20030;-67
2024/04/13 10:58:30;;;;;;;4.65;1.80;;;;;;;-145.63;100.00;61273.97;4975076;28;20061;-67
2024/04/13 11:00:57;;;;;;;3.38;2.00;;;;;;;-145.63;100.00;61273.97;4991922;28;20077;-65
2024/04/13 11:03:24;;;;;;;5.28;2.40;;;;;;;-145.63;100.00;61273.97;4993624;28;20026;-64
2024/04/13 11:05:50;;;;;;;4.65;2.20;;;;;;;-145.63;100.00;61273.97;4984331;28;20038;-64
2024/04/13 11:08:18;;;;;;;6.10;2.35;;;;;;;-145.63;100.00;61273.97;4974846;28;20037;-65